createdAt,value
2023-02-23T00:01:29.909Z,11.80
2023-02-23T00:03:58.465Z,12.10
2023-02-23T00:06:30.479Z,12.18
2023-02-23T00:08:58.195Z,11.75
2023-02-23T00:11:27.101Z,12.60
2023-02-23T00:13:54.684Z,11.27
2023-02-23T00:16:24.001Z,12.75
2023-02-23T00:18:53.645Z,11.27
2023-02-23T00:21:29.989Z,13.05
2023-02-23T00:24:02.453Z,12.52
2023-02-23T00:26:34.595Z,13.07
2023-02-23T00:29:03.488Z,12.15
2023-02-23T00:31:30.597Z,12.20
2023-02-23T00:34:00.004Z,11.43
2023-02-23T00:36:33.373Z,12.02
2023-02-23T00:39:11.250Z,12.38
2023-02-23T00:41:38.038Z,12.25
2023-02-23T00:44:07.042Z,13.27
2023-02-23T00:46:34.266Z,13.38
2023-02-23T00:49:01.958Z,13.05
2023-02-23T00:51:34.980Z,13.18
2023-02-23T00:54:01.824Z,12.05
2023-02-23T00:56:29.109Z,12.70
2023-02-23T00:58:57.712Z,11.88
2023-02-23T01:01:26.936Z,13.55
2023-02-23T01:03:54.382Z,12.82
2023-02-23T01:06:21.934Z,11.07
2023-02-23T01:08:50.743Z,11.95
2023-02-23T01:11:23.044Z,12.60
2023-02-23T01:13:53.141Z,12.07
2023-02-23T01:16:27.878Z,11.60
2023-02-23T01:19:00.962Z,11.82
2023-02-23T01:21:34.426Z,11.77
2023-02-23T01:24:02.301Z,11.20
2023-02-23T01:26:34.104Z,11.73
2023-02-23T01:29:10.478Z,11.48
2023-02-23T01:31:40.899Z,10.68
2023-02-23T01:34:09.698Z,11.48
2023-02-23T01:36:39.019Z,11.27
2023-02-23T01:39:08.108Z,10.60
2023-02-23T01:41:37.081Z,10.30
2023-02-23T01:44:08.538Z,9.70
2023-02-23T01:46:41.537Z,10.82
2023-02-23T01:49:17.689Z,9.90
2023-02-23T01:54:22.555Z,8.30
2023-02-23T01:56:58.114Z,9.82
2023-02-23T01:59:44.344Z,9.88
2023-02-23T02:02:13.389Z,9.23
2023-02-23T02:04:45.204Z,9.85
2023-02-23T02:07:23.779Z,10.18
2023-02-23T02:10:17.224Z,9.32
2023-02-23T02:12:52.055Z,10.52
2023-02-23T02:15:22.404Z,8.93
2023-02-23T02:18:09.450Z,9.13
2023-02-23T02:21:22.687Z,9.55
2023-02-23T02:24:08.418Z,9.63
2023-02-23T02:26:55.180Z,9.63
2023-02-23T02:29:40.805Z,8.80
2023-02-23T02:32:31.676Z,9.38
2023-02-23T02:35:53.955Z,8.95
2023-02-23T02:38:50.957Z,8.93
2023-02-23T02:41:51.011Z,9.00
2023-02-23T02:44:50.830Z,8.98
2023-02-23T02:47:26.932Z,9.80
2023-02-23T02:52:54.250Z,7.07
2023-02-23T02:55:34.701Z,7.72
2023-02-23T02:58:04.446Z,7.70
2023-02-23T03:01:01.238Z,9.35
2023-02-23T03:03:47.918Z,9.30
2023-02-23T03:06:33.906Z,7.70
2023-02-23T03:09:41.959Z,8.63
2023-02-23T03:12:36.118Z,7.75
2023-02-23T03:15:55.181Z,8.18
2023-02-23T03:19:13.576Z,8.45
2023-02-23T03:22:25.905Z,8.68
2023-02-23T03:25:25.180Z,8.52
2023-02-23T03:28:12.662Z,8.65
2023-02-23T03:31:12.356Z,8.70
2023-02-23T03:34:23.406Z,9.00
2023-02-23T03:37:16.959Z,8.45
2023-02-23T03:40:10.007Z,7.90
2023-02-23T03:42:56.555Z,8.85
2023-02-23T03:48:32.528Z,7.75
2023-02-23T03:51:24.121Z,8.52
2023-02-23T03:54:19.294Z,7.90
2023-02-23T03:57:09.110Z,8.07
2023-02-23T04:00:05.964Z,8.18
2023-02-23T04:03:01.304Z,8.52
2023-02-23T04:05:49.063Z,8.60
2023-02-23T04:08:38.478Z,8.48
2023-02-23T04:11:37.033Z,8.68
2023-02-23T04:14:08.603Z,8.35
2023-02-23T04:16:36.030Z,9.30
2023-02-23T04:19:03.392Z,9.50
2023-02-23T04:21:30.715Z,9.48
2023-02-23T04:23:57.961Z,10.68
2023-02-23T04:26:25.281Z,10.23
2023-02-23T04:28:52.511Z,10.25
2023-02-23T04:31:22.191Z,10.40
2023-02-23T04:33:51.040Z,9.88
2023-02-23T04:36:18.118Z,10.82
2023-02-23T04:38:45.312Z,9.43
2023-02-23T04:41:12.174Z,10.05
2023-02-23T04:43:39.419Z,9.43
2023-02-23T04:46:06.234Z,11.52
2023-02-23T04:48:33.472Z,9.88
2023-02-23T04:51:00.654Z,9.90
2023-02-23T04:53:27.881Z,10.63
2023-02-23T04:55:54.928Z,11.02
2023-02-23T04:58:22.150Z,9.65
2023-02-23T05:00:49.672Z,10.60
2023-02-23T05:03:17.605Z,9.13
2023-02-23T05:05:44.967Z,10.50
2023-02-23T05:08:12.270Z,9.38
2023-02-23T05:10:40.476Z,10.40
2023-02-23T05:13:07.516Z,10.60
2023-02-23T05:15:34.739Z,10.65
2023-02-23T05:18:02.424Z,10.50
2023-02-23T05:20:29.221Z,9.00
2023-02-23T05:22:56.091Z,10.43
2023-02-23T05:25:23.294Z,10.18
2023-02-23T05:27:50.886Z,10.50
2023-02-23T05:30:18.177Z,10.48
2023-02-23T05:32:45.089Z,10.23
2023-02-23T05:35:12.896Z,11.07
2023-02-23T05:37:40.158Z,9.98
2023-02-23T05:40:07.760Z,8.80
2023-02-23T05:42:35.063Z,9.60
2023-02-23T05:45:02.442Z,9.10
2023-02-23T05:47:30.756Z,10.15
2023-02-23T05:49:57.967Z,9.20
2023-02-23T05:52:25.211Z,11.15
2023-02-23T05:54:52.522Z,10.45
2023-02-23T05:57:20.059Z,11.15
2023-02-23T05:59:46.821Z,11.75
2023-02-23T06:02:14.164Z,12.45
2023-02-23T06:04:42.280Z,11.80
2023-02-23T06:07:09.722Z,14.57
2023-02-23T06:09:36.990Z,14.23
2023-02-23T06:12:04.420Z,14.32
2023-02-23T06:14:32.338Z,14.55
2023-02-23T06:17:00.382Z,15.73
2023-02-23T06:19:28.028Z,14.98
2023-02-23T06:21:55.791Z,17.38
2023-02-23T06:24:23.941Z,15.98
2023-02-23T06:26:51.097Z,16.95
2023-02-23T06:29:17.996Z,16.83
2023-02-23T06:31:45.328Z,15.18
2023-02-23T06:34:12.588Z,16.50
2023-02-23T06:36:39.929Z,17.67
2023-02-23T06:39:06.717Z,17.92
2023-02-23T06:41:35.215Z,19.23
2023-02-23T06:44:02.498Z,18.75
2023-02-23T06:46:29.300Z,21.58
2023-02-23T06:48:56.923Z,22.60
2023-02-23T06:51:24.039Z,20.42
2023-02-23T06:53:52.577Z,19.20
2023-02-23T06:56:19.886Z,19.00
2023-02-23T06:58:47.973Z,19.45
2023-02-23T07:01:15.793Z,19.67
2023-02-23T07:03:43.208Z,19.60
2023-02-23T07:06:10.599Z,18.85
2023-02-23T07:08:39.399Z,18.02
2023-02-23T07:11:13.350Z,18.08
2023-02-23T07:13:41.916Z,18.33
2023-02-23T07:16:09.667Z,18.42
2023-02-23T07:18:38.767Z,19.67
2023-02-23T07:21:07.767Z,18.38
2023-02-23T07:23:36.082Z,17.27
2023-02-23T07:26:04.728Z,17.20
2023-02-23T07:28:33.516Z,17.67
2023-02-23T07:31:02.179Z,18.50
2023-02-23T07:33:31.393Z,18.13
2023-02-23T07:35:58.881Z,18.58
2023-02-23T07:38:25.746Z,18.20
2023-02-23T07:40:53.376Z,16.92
2023-02-23T07:43:22.601Z,17.85
2023-02-23T07:45:51.159Z,17.50
2023-02-23T07:48:21.280Z,16.85
2023-02-23T07:50:48.767Z,17.02
2023-02-23T07:53:16.341Z,17.13
2023-02-23T07:55:43.595Z,17.75
2023-02-23T07:58:13.279Z,17.90
2023-02-23T08:00:40.827Z,18.35
2023-02-23T08:03:08.066Z,19.15
2023-02-23T08:05:36.363Z,17.45
2023-02-23T08:08:03.806Z,16.92
2023-02-23T08:10:31.117Z,16.90
2023-02-23T08:12:59.764Z,16.17
2023-02-23T08:15:27.055Z,15.95
2023-02-23T08:17:54.273Z,16.20
2023-02-23T08:20:21.175Z,13.70
2023-02-23T08:22:49.990Z,13.68
2023-02-23T08:25:17.776Z,15.43
2023-02-23T08:27:44.953Z,15.48
2023-02-23T08:30:14.122Z,14.82
2023-02-23T08:32:41.459Z,13.77
2023-02-23T08:35:10.466Z,15.98
2023-02-23T08:37:37.755Z,14.43
2023-02-23T08:40:05.237Z,14.32
2023-02-23T08:42:32.093Z,14.18
2023-02-23T08:45:01.373Z,14.23
2023-02-23T08:47:28.643Z,14.05
2023-02-23T08:49:55.841Z,13.82
2023-02-23T08:52:24.042Z,14.43
2023-02-23T08:54:51.267Z,15.00
2023-02-23T08:57:18.262Z,15.35
2023-02-23T08:59:45.675Z,14.15
2023-02-23T09:02:14.531Z,14.38
2023-02-23T09:04:44.613Z,13.20
2023-02-23T09:07:16.970Z,14.18
2023-02-23T09:09:44.220Z,15.32
2023-02-23T09:12:11.430Z,13.68
2023-02-23T09:14:38.796Z,13.45
2023-02-23T09:17:06.062Z,14.65
2023-02-23T09:19:33.300Z,13.75
2023-02-23T09:22:00.128Z,15.13
2023-02-23T09:24:27.319Z,14.25
2023-02-23T09:26:54.618Z,15.20
2023-02-23T09:29:23.071Z,14.70
2023-02-23T09:31:53.070Z,15.77
2023-02-23T09:34:20.305Z,15.48
2023-02-23T09:36:47.587Z,16.40
2023-02-23T09:39:14.793Z,15.80
2023-02-23T09:41:55.529Z,15.40
2023-02-23T09:44:45.120Z,14.93
2023-02-23T09:47:19.501Z,14.65
2023-02-23T09:49:48.325Z,13.18
2023-02-23T09:52:22.441Z,13.50
2023-02-23T09:54:49.801Z,14.07
2023-02-23T09:57:37.758Z,12.27
2023-02-23T10:00:17.131Z,14.02
2023-02-23T10:02:54.259Z,12.50
2023-02-23T10:05:23.865Z,13.48
2023-02-23T10:08:03.111Z,13.52
2023-02-23T10:10:40.417Z,12.30
2023-02-23T10:13:29.129Z,12.63
2023-02-23T10:16:08.908Z,11.77
2023-02-23T10:18:54.449Z,12.43
2023-02-23T10:21:33.804Z,12.40
2023-02-23T10:24:05.542Z,12.13
2023-02-23T10:26:55.630Z,13.10
2023-02-23T10:29:41.302Z,11.55
2023-02-23T10:32:20.987Z,12.60
2023-02-23T10:34:53.223Z,12.80
2023-02-23T10:37:20.646Z,13.05
2023-02-23T10:39:49.908Z,13.55
2023-02-23T10:42:22.036Z,12.98
2023-02-23T10:44:50.103Z,12.52
2023-02-23T10:47:21.087Z,12.70
2023-02-23T10:49:50.826Z,11.65
2023-02-23T10:52:32.827Z,10.32
2023-02-23T10:55:00.718Z,11.10
2023-02-23T10:57:30.211Z,10.98
2023-02-23T11:00:17.288Z,11.20
2023-02-23T11:02:45.776Z,9.95
2023-02-23T11:05:33.879Z,11.23
2023-02-23T11:08:09.970Z,10.52
2023-02-23T11:15:49.930Z,8.15
2023-02-23T11:18:23.524Z,9.57
2023-02-23T11:20:51.730Z,9.50
2023-02-23T11:23:22.507Z,8.95
2023-02-23T11:25:55.470Z,7.28
2023-02-23T11:28:31.947Z,7.40
2023-02-23T11:31:13.310Z,7.20
2023-02-23T11:33:40.900Z,6.82
2023-02-23T11:36:32.880Z,6.43
2023-02-23T11:39:16.707Z,6.63
2023-02-23T11:41:44.086Z,6.68
2023-02-23T11:44:29.202Z,7.75
2023-02-23T11:46:57.320Z,7.05
2023-02-23T11:49:31.150Z,7.93
2023-02-23T11:51:59.453Z,6.93
2023-02-23T11:54:28.347Z,7.95
2023-02-23T11:56:57.526Z,8.25
2023-02-23T11:59:32.748Z,7.53
2023-02-23T12:02:18.028Z,7.35
2023-02-23T12:04:50.013Z,7.65
2023-02-23T12:07:34.798Z,6.90
2023-02-23T12:10:41.421Z,6.97
2023-02-23T12:13:08.939Z,7.70
2023-02-23T12:15:50.356Z,6.20
2023-02-23T12:18:24.601Z,5.82
2023-02-23T12:20:55.692Z,5.22
2023-02-23T12:23:27.694Z,5.50
2023-02-23T12:25:59.890Z,5.40
2023-02-23T12:28:43.061Z,5.05
2023-02-23T12:31:25.726Z,5.85
2023-02-23T12:34:01.264Z,4.57
2023-02-23T12:36:39.559Z,4.68
2023-02-23T12:39:30.480Z,4.63
2023-02-23T12:42:39.910Z,3.97
2023-02-23T12:45:20.814Z,3.83
2023-02-23T12:48:23.764Z,3.47
2023-02-23T12:50:54.298Z,3.60
2023-02-23T12:53:41.837Z,3.22
2023-02-23T12:56:32.713Z,3.42
2023-02-23T12:59:14.518Z,3.50
2023-02-23T13:01:58.586Z,3.25
2023-02-23T13:04:34.148Z,3.67
2023-02-23T13:07:20.378Z,3.60
2023-02-23T13:09:58.950Z,3.50
2023-02-23T13:12:32.973Z,3.22
2023-02-23T13:15:40.817Z,3.08
2023-02-23T13:18:32.063Z,3.30
2023-02-23T13:21:06.631Z,3.35
2023-02-23T13:23:36.301Z,3.47
2023-02-23T13:26:38.795Z,3.45
2023-02-23T13:29:14.847Z,3.53
2023-02-23T13:34:27.090Z,3.00
2023-02-23T13:36:55.679Z,3.47
2023-02-23T13:39:34.888Z,4.38
2023-02-23T13:42:38.325Z,3.90
2023-02-23T13:45:41.102Z,3.95
2023-02-23T13:48:26.906Z,3.90
2023-02-23T13:51:14.017Z,3.50
2023-02-23T13:53:42.359Z,3.50
2023-02-23T13:56:22.885Z,3.95
2023-02-23T13:59:02.085Z,3.95
2023-02-23T14:01:37.677Z,4.25
2023-02-23T14:04:12.763Z,3.80
2023-02-23T14:06:49.861Z,5.03
2023-02-23T14:09:24.177Z,4.93
2023-02-23T14:11:53.889Z,4.47
2023-02-23T14:14:33.162Z,3.65
2023-02-23T14:17:15.318Z,3.90
2023-02-23T14:19:43.467Z,3.60
2023-02-23T14:22:15.430Z,3.42
2023-02-23T14:24:42.256Z,3.33
2023-02-23T14:27:14.922Z,5.75
2023-02-23T14:29:44.162Z,4.00
2023-02-23T14:32:11.125Z,3.90
2023-02-23T14:35:00.818Z,3.67
2023-02-23T14:37:43.160Z,3.38
2023-02-23T14:40:22.564Z,3.47
2023-02-23T14:42:56.915Z,4.07
2023-02-23T14:45:38.244Z,3.75
2023-02-23T14:48:13.081Z,3.45
2023-02-23T14:50:41.616Z,3.65
2023-02-23T14:53:23.711Z,3.58
2023-02-23T14:55:50.757Z,3.70
2023-02-23T14:58:27.137Z,3.03
2023-02-23T15:00:54.228Z,3.30
2023-02-23T15:03:22.457Z,3.58
2023-02-23T15:05:59.649Z,3.55
2023-02-23T15:08:29.975Z,3.13
2023-02-23T15:11:11.187Z,3.38
2023-02-23T15:13:41.874Z,3.63
2023-02-23T15:16:23.106Z,3.40
2023-02-23T15:19:30.772Z,3.45
2023-02-23T15:21:59.750Z,3.65
2023-02-23T15:24:31.314Z,3.45
2023-02-23T15:26:58.930Z,3.67
2023-02-23T15:29:32.473Z,3.17
2023-02-23T15:32:14.890Z,3.28
2023-02-23T15:34:42.357Z,3.55
2023-02-23T15:37:35.941Z,3.60
2023-02-23T15:40:08.108Z,3.70
2023-02-23T15:42:36.318Z,3.55
2023-02-23T15:45:11.843Z,3.58
2023-02-23T15:47:39.162Z,4.13
2023-02-23T15:50:07.458Z,3.38
2023-02-23T15:52:39.509Z,3.75
2023-02-23T15:55:10.189Z,4.18
2023-02-23T15:57:53.232Z,4.45
2023-02-23T16:00:38.956Z,4.68
2023-02-23T16:03:07.639Z,4.03
2023-02-23T16:05:46.965Z,3.75
2023-02-23T16:08:24.713Z,3.83
2023-02-23T16:11:08.886Z,4.10
2023-02-23T16:13:36.160Z,4.03
2023-02-23T16:16:09.926Z,4.80
2023-02-23T16:18:41.017Z,4.45
2023-02-23T16:21:16.812Z,3.95
2023-02-23T16:23:47.953Z,4.28
2023-02-23T16:26:28.885Z,4.55
2023-02-23T16:29:01.021Z,4.25
2023-02-23T16:31:49.086Z,4.57
2023-02-23T16:34:36.614Z,3.92
2023-02-23T16:37:15.773Z,3.90
2023-02-23T16:39:42.666Z,4.57
2023-02-23T16:42:17.329Z,3.65
2023-02-23T16:44:47.188Z,4.38
2023-02-23T16:47:41.476Z,4.18
2023-02-23T16:50:21.091Z,4.57
2023-02-23T16:52:53.222Z,3.45
2023-02-23T16:55:27.930Z,4.25
2023-02-23T16:57:58.936Z,3.67
2023-02-23T17:00:32.303Z,4.97
2023-02-23T17:03:00.995Z,4.65
2023-02-23T17:05:29.094Z,4.57
2023-02-23T17:07:58.273Z,6.25
2023-02-23T17:10:32.522Z,6.15
2023-02-23T17:13:06.736Z,8.90
2023-02-23T17:15:36.884Z,6.10
2023-02-23T17:18:04.741Z,5.95
2023-02-23T17:20:32.758Z,5.60
2023-02-23T17:23:01.049Z,5.22
2023-02-23T17:25:28.475Z,5.50
2023-02-23T17:27:57.001Z,5.85
2023-02-23T17:30:24.928Z,5.07
2023-02-23T17:32:54.550Z,5.20
2023-02-23T17:35:22.478Z,6.10
2023-02-23T17:37:49.928Z,5.18
2023-02-23T17:40:28.646Z,5.45
2023-02-23T17:42:57.621Z,5.43
2023-02-23T17:45:25.538Z,5.82
2023-02-23T17:47:52.854Z,4.93
2023-02-23T17:50:22.719Z,5.55
2023-02-23T17:52:51.159Z,4.70
2023-02-23T17:55:19.062Z,4.80
2023-02-23T17:57:46.393Z,5.05
2023-02-23T18:00:15.399Z,4.88
2023-02-23T18:02:44.544Z,5.40
2023-02-23T18:05:13.338Z,4.13
2023-02-23T18:07:40.263Z,5.15
2023-02-23T18:10:07.696Z,6.53
2023-02-23T18:12:35.083Z,6.80
2023-02-23T18:15:01.988Z,6.38
2023-02-23T18:17:28.858Z,6.25
2023-02-23T18:19:55.669Z,6.40
2023-02-23T18:22:22.611Z,6.20
2023-02-23T18:24:49.448Z,5.72
2023-02-23T18:27:16.263Z,6.15
2023-02-23T18:29:43.254Z,5.55
2023-02-23T18:32:12.091Z,5.82
2023-02-23T18:34:39.417Z,5.00
2023-02-23T18:37:09.909Z,5.20
2023-02-23T18:39:37.227Z,6.03
2023-02-23T18:42:04.779Z,5.60
2023-02-23T18:44:34.764Z,5.65
2023-02-23T18:47:02.589Z,5.25
2023-02-23T18:49:29.592Z,5.93
2023-02-23T18:51:56.922Z,5.55
2023-02-23T18:54:26.053Z,5.25
2023-02-23T18:56:54.485Z,4.88
2023-02-23T18:59:21.422Z,6.35
2023-02-23T19:01:49.274Z,7.25
2023-02-23T19:04:16.592Z,5.25
2023-02-23T19:06:44.914Z,5.43
2023-02-23T19:09:14.615Z,15.80
2023-02-23T19:11:43.451Z,12.50
2023-02-23T19:14:18.429Z,9.88
2023-02-23T19:16:46.859Z,7.15
2023-02-23T19:19:14.629Z,6.47
2023-02-23T19:21:42.198Z,7.75
2023-02-23T19:24:09.258Z,8.13
2023-02-23T19:26:38.140Z,6.68
2023-02-23T19:29:05.477Z,6.93
2023-02-23T19:31:33.100Z,5.75
2023-02-23T19:34:03.376Z,5.20
2023-02-23T19:36:31.724Z,5.70
2023-02-23T19:39:11.080Z,6.28
2023-02-23T19:41:39.976Z,5.93
2023-02-23T19:44:07.471Z,5.65
2023-02-23T19:46:35.189Z,5.60
2023-02-23T19:49:02.649Z,5.18
2023-02-23T19:51:30.100Z,4.68
2023-02-23T19:53:58.424Z,4.80
2023-02-23T19:56:27.904Z,4.90
2023-02-23T19:58:59.757Z,4.95
2023-02-23T20:01:27.821Z,4.88
2023-02-23T20:03:55.882Z,5.10
2023-02-23T20:06:27.633Z,4.30
2023-02-23T20:08:55.380Z,4.68
2023-02-23T20:11:23.536Z,5.45
2023-02-23T20:13:52.960Z,8.80
2023-02-23T20:16:20.834Z,9.80
2023-02-23T20:18:47.915Z,7.88
2023-02-23T20:21:17.948Z,8.27
2023-02-23T20:23:46.436Z,7.40
2023-02-23T20:26:17.596Z,7.00
2023-02-23T20:28:45.078Z,7.32
2023-02-23T20:31:21.113Z,7.55
2023-02-23T20:33:51.591Z,8.98
2023-02-23T20:36:20.301Z,8.15
2023-02-23T20:38:47.522Z,6.32
2023-02-23T20:41:14.872Z,7.68
2023-02-23T20:43:43.876Z,8.82
2023-02-23T20:46:13.629Z,8.05
2023-02-23T20:48:40.804Z,8.20
2023-02-23T20:51:12.817Z,8.90
2023-02-23T20:53:41.012Z,8.27
2023-02-23T20:56:09.601Z,9.32
2023-02-23T20:58:36.511Z,8.15
2023-02-23T21:01:06.495Z,9.70
2023-02-23T21:03:34.629Z,9.50
2023-02-23T21:06:01.696Z,8.20
2023-02-23T21:08:31.453Z,8.73
2023-02-23T21:11:04.618Z,8.82
2023-02-23T21:13:31.393Z,8.80
2023-02-23T21:16:01.161Z,9.30
2023-02-23T21:18:29.306Z,9.38
2023-02-23T21:21:06.576Z,8.40
2023-02-23T21:23:33.451Z,8.88
2023-02-23T21:26:14.192Z,11.00
2023-02-23T21:28:43.003Z,10.82
2023-02-23T21:31:10.928Z,9.35
2023-02-23T21:33:40.057Z,8.63
2023-02-23T21:36:10.415Z,8.95
2023-02-23T21:38:41.998Z,8.10
2023-02-23T21:41:10.669Z,8.15
2023-02-23T21:43:41.824Z,9.45
2023-02-23T21:46:13.908Z,7.95
2023-02-23T21:48:41.770Z,8.77
2023-02-23T21:51:11.822Z,7.22
2023-02-23T21:53:39.365Z,9.25
2023-02-23T21:56:12.171Z,7.68
2023-02-23T21:58:43.448Z,6.68
2023-02-23T22:01:16.259Z,6.72
2023-02-23T22:03:46.858Z,8.02
2023-02-23T22:06:22.647Z,7.82
2023-02-23T22:08:50.581Z,8.02
2023-02-23T22:11:22.229Z,7.38
2023-02-23T22:13:54.465Z,8.05
2023-02-23T22:16:21.890Z,7.55
2023-02-23T22:18:48.759Z,7.40
2023-02-23T22:21:16.043Z,8.95
2023-02-23T22:23:50.234Z,7.88
2023-02-23T22:26:17.871Z,8.45
2023-02-23T22:28:44.820Z,8.18
2023-02-23T22:31:13.701Z,8.18
2023-02-23T22:33:43.473Z,8.52
2023-02-23T22:36:13.170Z,8.70
2023-02-23T22:38:41.308Z,9.05
2023-02-23T22:41:11.844Z,9.48
2023-02-23T22:43:46.056Z,9.48
2023-02-23T22:46:14.254Z,8.73
2023-02-23T22:48:46.422Z,9.25
2023-02-23T22:51:15.950Z,8.70
2023-02-23T22:53:43.744Z,10.60
2023-02-23T22:56:11.011Z,10.20
2023-02-23T22:58:37.972Z,9.93
2023-02-23T23:01:09.773Z,10.18
2023-02-23T23:03:48.021Z,10.35
2023-02-23T23:06:17.802Z,9.65
2023-02-23T23:08:45.633Z,10.38
2023-02-23T23:11:25.919Z,11.10
2023-02-23T23:13:57.623Z,10.85
2023-02-23T23:16:32.282Z,11.20
2023-02-23T23:19:04.956Z,11.05
2023-02-23T23:21:34.753Z,11.30
2023-02-23T23:24:05.783Z,11.10
2023-02-23T23:26:35.566Z,11.70
2023-02-23T23:29:07.486Z,11.13
2023-02-23T23:31:35.479Z,11.75
2023-02-23T23:34:09.450Z,11.70
2023-02-23T23:36:42.858Z,12.35
2023-02-23T23:39:15.990Z,10.80
2023-02-23T23:41:44.720Z,10.90
2023-02-23T23:44:13.195Z,10.93
2023-02-23T23:46:45.217Z,10.52
2023-02-23T23:49:17.755Z,10.80
2023-02-23T23:51:52.294Z,11.40
2023-02-23T23:54:26.126Z,11.07
2023-02-23T23:56:53.397Z,11.50
2023-02-23T23:59:22.772Z,11.48
